Terminal Aerodrome Forecast
Issued by NWS

Current Version | Previous Version | Text Only | Print | Product List | Glossary Off
Versions: 1 2 3 4 5 6 7 8 9 10 11 12 13 14 15 16 17 18 19 20 21 22 23 24 25 26 27 28 29 30 31 32 33 34 35 36 37 38 39 40 41 42 43 44 45 46 47 48 49 50

000
FTUS41 KRNK 141723
TAFLWB
TAF
KLWB 141723Z 1418/1518 00000KT 2SM -DZ SCT002 OVC004
     FM142100 00000KT 6SM -RA OVC008
     FM150100 00000KT 3SM BR OVC006
     FM150700 33003KT 1SM BR OVC004
     FM151000 00000KT 1/4SM FG OVC001
     FM151600 32002KT 4SM -RA BR OVC007=

USA.gov is the U.S. government's official web portal to all federal, state and local government web resources and services.